Time;durP1;ratioP1;P1;durP2;ratioP2;P2;SDS_P1;SDS_P2;PMS_P1;PMS_P2;Temp;Humidity;BMP_temperature;BMP_pressure;BME280_temperature;BME280_humidity;BME280_pressure;Samples;Min_cycle;Max_cycle;Signal;HPM_P1;HPM_P2
2023/03/01 00:01:18;;;;;;;23.13;12.07;;;;;;;-1.40;100.00;102932.88;5073588;28;20029;-71
2023/03/01 00:03:44;;;;;;;23.77;12.35;;;;;;;-1.41;100.00;102934.56;5069898;28;20399;-72
2023/03/01 00:06:10;;;;;;;25.08;12.93;;;;;;;-1.47;100.00;102933.13;5073791;28;20059;-72
2023/03/01 00:08:36;;;;;;;23.42;12.80;;;;;;;-1.45;100.00;102929.91;5073443;28;20031;-72
2023/03/01 00:11:06;;;;;;;24.65;13.32;;;;;;;-1.52;100.00;102924.94;5073248;28;20036;-72
2023/03/01 00:13:32;;;;;;;24.30;12.82;;;;;;;-1.56;100.00;102930.63;5072986;28;20043;-72
2023/03/01 00:15:58;;;;;;;24.75;13.45;;;;;;;-1.65;100.00;102935.03;5073597;28;20028;-72
2023/03/01 00:18:23;;;;;;;23.83;13.35;;;;;;;-1.63;100.00;102930.88;5073343;28;20097;-72
2023/03/01 00:20:53;;;;;;;24.05;13.02;;;;;;;-1.70;100.00;102929.47;5073423;28;20150;-72
2023/03/01 00:23:19;;;;;;;23.92;13.68;;;;;;;-1.71;100.00;102939.69;5073416;28;20064;-72
2023/03/01 00:25:45;;;;;;;24.45;13.25;;;;;;;-1.74;100.00;102932.56;5073187;28;20051;-71
2023/03/01 00:28:10;;;;;;;25.35;13.85;;;;;;;-1.79;100.00;102929.56;5073295;28;20463;-72
2023/03/01 00:30:35;;;;;;;25.17;14.32;;;;;;;-1.81;100.00;102931.09;5073023;28;20119;-72
2023/03/01 00:33:01;;;;;;;25.58;14.07;;;;;;;-1.86;100.00;102927.19;5073043;28;20068;-72
2023/03/01 00:35:26;;;;;;;24.25;13.57;;;;;;;-1.94;100.00;102925.59;5073180;28;20032;-72
2023/03/01 00:37:57;;;;;;;26.45;14.52;;;;;;;-1.97;100.00;102926.25;5072752;28;20048;-76
2023/03/01 00:40:23;;;;;;;26.95;14.80;;;;;;;-2.08;100.00;102933.84;5072899;28;20036;-73
2023/03/01 00:42:49;;;;;;;25.35;14.68;;;;;;;-2.08;100.00;102931.25;5073079;28;20069;-72
2023/03/01 00:45:14;;;;;;;27.25;15.60;;;;;;;-2.14;100.00;102929.94;5072897;28;20459;-73
2023/03/01 00:47:40;;;;;;;27.67;15.45;;;;;;;-2.17;100.00;102939.13;5073111;28;20032;-74
2023/03/01 00:50:06;;;;;;;26.95;15.60;;;;;;;-2.26;100.00;102934.00;5073015;28;20037;-74
2023/03/01 00:52:31;;;;;;;27.33;15.38;;;;;;;-2.22;100.00;102923.16;5072776;28;20165;-73
2023/03/01 00:54:57;;;;;;;24.88;14.30;;;;;;;-2.31;100.00;102920.66;5072695;28;20055;-76
2023/03/01 00:57:23;;;;;;;25.13;14.20;;;;;;;-2.36;100.00;102926.19;5072813;28;20061;-73
2023/03/01 00:59:48;;;;;;;24.92;13.55;;;;;;;-2.38;100.00;102923.47;5072720;28;20539;-71
2023/03/01 01:02:14;;;;;;;24.77;13.02;;;;;;;-2.35;100.00;102915.97;5068434;28;20044;-73
2023/03/01 01:04:39;;;;;;;24.75;13.15;;;;;;;-2.28;100.00;102904.47;5072879;28;20531;-71
2023/03/01 01:07:05;;;;;;;24.90;13.73;;;;;;;-2.37;100.00;102908.84;5072769;28;20052;-71
2023/03/01 01:09:30;;;;;;;24.05;13.18;;;;;;;-2.48;100.00;102906.19;5072567;28;20033;-73
2023/03/01 01:11:56;;;;;;;24.10;13.02;;;;;;;-2.58;100.00;102903.53;5072686;28;20103;-74
2023/03/01 01:14:21;;;;;;;23.67;12.88;;;;;;;-2.63;100.00;102910.88;5072450;28;20039;-72
2023/03/01 01:16:47;;;;;;;25.38;13.50;;;;;;;-2.68;100.00;102906.06;5072490;28;20021;-71
2023/03/01 01:19:13;;;;;;;24.63;13.18;;;;;;;-2.76;100.00;102907.97;5071303;28;20494;-73
2023/03/01 01:21:39;;;;;;;25.23;13.30;;;;;;;-2.74;100.00;102905.50;5072531;28;20036;-72
2023/03/01 01:24:05;;;;;;;23.85;13.48;;;;;;;-2.81;100.00;102894.59;5077165;28;20066;-75
2023/03/01 01:26:32;;;;;;;24.50;13.35;;;;;;;-2.72;100.00;102893.59;5079090;28;20025;-76
2023/03/01 01:28:58;;;;;;;23.67;12.98;;;;;;;-2.83;100.00;102888.34;5085836;28;20025;-70
2023/03/01 01:31:24;;;;;;;24.42;13.55;;;;;;;-2.83;100.00;102884.88;5090880;28;20050;-71
2023/03/01 01:33:51;;;;;;;24.13;13.30;;;;;;;-2.89;100.00;102885.22;5090546;28;20058;-71
2023/03/01 01:36:16;;;;;;;24.60;13.23;;;;;;;-2.99;100.00;102865.31;5089426;28;20056;-70
2023/03/01 01:38:42;;;;;;;24.35;13.13;;;;;;;-2.99;100.00;102872.19;5089803;28;20036;-71
2023/03/01 01:41:11;;;;;;;24.60;13.50;;;;;;;-3.10;100.00;102870.28;5085475;28;20031;-71
2023/03/01 01:43:48;;;;;;;25.00;13.88;;;;;;;-3.19;100.00;102866.13;5078849;28;20115;-72
2023/03/01 01:46:30;;;;;;;24.85;13.32;;;;;;;-3.22;100.00;102863.25;5078922;28;20023;-70
2023/03/01 01:49:35;;;;;;;24.35;13.48;;;;;;;-3.16;100.00;102863.81;5076303;28;20024;-71
2023/03/01 01:52:10;;;;;;;23.90;13.15;;;;;;;-3.08;100.00;102853.25;5077188;28;20107;-70
2023/03/01 01:54:46;;;;;;;23.73;13.00;;;;;;;-3.14;100.00;102857.88;5078780;28;20027;-70
2023/03/01 01:57:15;;;;;;;23.58;13.02;;;;;;;-3.14;100.00;102860.47;5078897;28;20526;-70
2023/03/01 01:59:45;;;;;;;23.92;13.40;;;;;;;-3.21;100.00;102853.78;5079048;28;20052;-70
2023/03/01 02:02:12;;;;;;;23.70;13.27;;;;;;;-3.28;100.00;102852.31;5078666;28;20032;-70
2023/03/01 02:04:38;;;;;;;23.88;13.45;;;;;;;-3.32;100.00;102847.59;5078803;28;20051;-70
2023/03/01 02:07:13;;;;;;;24.40;13.45;;;;;;;-3.36;100.00;102850.72;5079016;28;20486;-70
2023/03/01 02:09:40;;;;;;;24.90;13.10;;;;;;;-3.39;100.00;102840.97;5079082;28;20471;-70
2023/03/01 02:12:06;;;;;;;24.60;13.07;;;;;;;-3.41;100.00;102833.84;5079786;28;20036;-70
2023/03/01 02:14:32;;;;;;;24.83;13.35;;;;;;;-3.34;100.00;102841.41;5097147;28;20100;-71
2023/03/01 02:16:57;;;;;;;24.60;13.35;;;;;;;-3.37;100.00;102835.94;5098644;28;20083;-70
2023/03/01 02:19:38;;;;;;;23.95;13.00;;;;;;;-3.37;100.00;102841.13;5098833;28;20032;-70
2023/03/01 02:22:20;;;;;;;25.55;13.70;;;;;;;-3.52;100.00;102832.84;5091115;28;20029;-70
2023/03/01 02:25:07;;;;;;;24.30;12.98;;;;;;;-3.48;100.00;102831.44;5085195;28;20050;-70
2023/03/01 02:27:44;;;;;;;24.00;13.10;;;;;;;-3.51;100.00;102832.06;5088430;28;20039;-70
2023/03/01 02:30:12;;;;;;;23.55;13.10;;;;;;;-3.45;100.00;102826.56;5085972;28;20029;-75
2023/03/01 02:32:41;;;;;;;24.17;12.90;;;;;;;-3.60;100.00;102831.22;5078912;28;20146;-70
2023/03/01 02:35:10;;;;;;;24.20;12.85;;;;;;;-3.74;100.00;102832.50;5074841;28;20425;-70
2023/03/01 02:37:36;;;;;;;24.00;13.25;;;;;;;-3.72;100.00;102828.41;5075110;28;20545;-70
2023/03/01 02:40:05;;;;;;;24.52;13.25;;;;;;;-3.80;100.00;102839.69;5075526;28;20115;-70
2023/03/01 02:42:36;;;;;;;24.80;13.45;;;;;;;-3.74;100.00;102832.50;5075188;28;20025;-70
2023/03/01 02:45:02;;;;;;;24.45;13.10;;;;;;;-3.70;100.00;102838.13;5075184;28;20050;-70
2023/03/01 02:47:27;;;;;;;24.95;13.15;;;;;;;-3.76;100.00;102828.88;5075399;28;20429;-70
2023/03/01 02:49:52;;;;;;;24.00;13.02;;;;;;;-3.74;100.00;102840.25;5075280;28;20029;-71
2023/03/01 02:52:45;;;;;;;24.33;12.68;;;;;;;-3.77;100.00;102837.38;5082885;28;20479;-71
2023/03/01 02:55:16;;;;;;;24.58;13.23;;;;;;;-3.78;100.00;102835.59;5093367;28;20032;-71
2023/03/01 02:57:44;;;;;;;25.05;13.43;;;;;;;-3.76;100.00;102842.69;5094642;28;20032;-71
2023/03/01 03:00:21;;;;;;;24.75;13.00;;;;;;;-3.75;100.00;102841.94;5092722;28;20032;-70
2023/03/01 03:02:49;;;;;;;24.27;12.98;;;;;;;-3.72;100.00;102838.75;5081476;28;20075;-70
2023/03/01 03:05:17;;;;;;;24.13;12.88;;;;;;;-3.74;100.00;102833.44;5086117;28;20017;-70
2023/03/01 03:07:45;;;;;;;24.08;12.70;;;;;;;-3.69;100.00;102829.59;5084248;28;20060;-70
2023/03/01 03:10:14;;;;;;;23.70;12.30;;;;;;;-3.78;100.00;102822.66;5082219;28;20064;-70
2023/03/01 03:12:40;;;;;;;23.08;12.10;;;;;;;-3.77;100.00;102830.56;5075330;28;20033;-70
2023/03/01 03:15:08;;;;;;;25.02;13.13;;;;;;;-3.75;100.00;102833.28;5074592;28;20433;-70
2023/03/01 03:17:37;;;;;;;24.33;12.65;;;;;;;-3.80;100.00;102834.50;5074789;28;20052;-70
2023/03/01 03:20:05;;;;;;;23.20;12.05;;;;;;;-3.78;100.00;102830.41;5074524;28;20079;-70
2023/03/01 03:22:31;;;;;;;23.63;12.18;;;;;;;-3.85;100.00;102829.81;5074407;28;20074;-70
2023/03/01 03:24:56;;;;;;;24.48;12.55;;;;;;;-3.80;100.00;102821.59;5074575;28;20471;-71
2023/03/01 03:27:21;;;;;;;23.70;12.85;;;;;;;-3.75;100.00;102826.44;5074267;28;20036;-70
2023/03/01 03:29:47;;;;;;;23.05;12.35;;;;;;;-3.72;100.00;102826.72;5074590;28;20037;-70
2023/03/01 03:32:12;;;;;;;23.30;12.05;;;;;;;-3.69;100.00;102828.69;5074411;28;20039;-70
2023/03/01 03:34:37;;;;;;;23.00;11.98;;;;;;;-3.64;100.00;102824.88;5074245;28;20368;-70
2023/03/01 03:37:03;;;;;;;24.00;12.00;;;;;;;-3.71;100.00;102818.19;5073989;28;20434;-71
2023/03/01 03:39:34;;;;;;;22.85;11.75;;;;;;;-3.75;100.00;102816.09;5074338;28;20103;-71
2023/03/01 03:42:00;;;;;;;23.95;12.27;;;;;;;-3.81;100.00;102824.97;5073966;28;20120;-71
2023/03/01 03:44:25;;;;;;;23.95;12.13;;;;;;;-3.89;100.00;102827.72;5074012;28;20537;-72
2023/03/01 03:46:50;;;;;;;23.63;11.93;;;;;;;-3.87;100.00;102826.19;5073155;28;20032;-71
2023/03/01 03:49:16;;;;;;;24.17;12.20;;;;;;;-3.91;100.00;102823.19;5069880;28;20111;-71
2023/03/01 03:51:41;;;;;;;23.45;11.90;;;;;;;-3.89;100.00;102817.41;5074012;28;20040;-72
2023/03/01 03:54:06;;;;;;;23.05;11.60;;;;;;;-3.93;100.00;102822.09;5074008;28;20066;-71
2023/03/01 03:56:32;;;;;;;23.92;11.95;;;;;;;-3.89;100.00;102830.31;5072532;28;20115;-72
2023/03/01 03:58:57;;;;;;;22.98;11.35;;;;;;;-3.94;100.00;102825.47;5072559;28;20082;-71
2023/03/01 04:01:22;;;;;;;22.90;11.57;;;;;;;-3.97;100.00;102817.44;5073458;28;20036;-72
2023/03/01 04:03:48;;;;;;;22.98;11.40;;;;;;;-4.06;100.00;102801.97;5073618;28;20047;-71
2023/03/01 04:06:14;;;;;;;22.85;11.20;;;;;;;-4.03;100.00;102813.50;5073841;28;20111;-72
2023/03/01 04:08:40;;;;;;;22.98;10.88;;;;;;;-4.05;100.00;102808.94;5073500;28;20028;-72
2023/03/01 04:13:51;;;;;;;23.33;11.45;;;;;;;-4.11;100.00;102795.44;5070306;28;20086;-72
2023/03/01 04:16:17;;;;;;;22.13;10.95;;;;;;;-4.17;100.00;102806.09;5069679;28;20060;-72
2023/03/01 04:18:43;;;;;;;22.10;10.90;;;;;;;-4.16;100.00;102794.13;5073533;28;20087;-75
2023/03/01 04:21:09;;;;;;;22.65;10.80;;;;;;;-4.23;100.00;102797.78;5073414;28;20367;-70
2023/03/01 04:23:34;;;;;;;22.23;10.98;;;;;;;-4.26;100.00;102800.06;5073396;28;20036;-71
2023/03/01 04:26:00;;;;;;;22.23;11.23;;;;;;;-4.26;100.00;102793.22;5073186;28;20032;-71
2023/03/01 04:28:34;;;;;;;23.27;11.20;;;;;;;-4.26;100.00;102797.50;5073105;28;20055;-78
2023/03/01 04:31:12;;;;;;;22.60;11.40;;;;;;;-4.31;100.00;102794.47;5073243;28;20017;-74
2023/03/01 04:33:38;;;;;;;23.25;11.50;;;;;;;-4.31;100.00;102794.47;5073595;28;20035;-70
2023/03/01 04:36:05;;;;;;;22.77;11.18;;;;;;;-4.33;100.00;102795.97;5073073;28;20048;-71
2023/03/01 04:38:30;;;;;;;22.75;11.43;;;;;;;-4.39;100.00;102788.56;5072880;28;20041;-73
2023/03/01 04:40:55;;;;;;;23.80;11.40;;;;;;;-4.39;100.00;102795.41;5073020;28;20035;-75
2023/03/01 04:43:21;;;;;;;23.80;12.07;;;;;;;-4.44;100.00;102788.88;5072913;28;20040;-73
2023/03/01 04:45:46;;;;;;;23.80;12.05;;;;;;;-4.49;100.00;102792.69;5068999;28;20028;-76
2023/03/01 04:48:12;;;;;;;23.08;11.70;;;;;;;-4.52;100.00;102782.97;5072903;28;20025;-70
2023/03/01 04:50:37;;;;;;;23.45;11.90;;;;;;;-4.60;100.00;102784.84;5071535;28;20102;-70
2023/03/01 04:53:02;;;;;;;23.42;11.90;;;;;;;-4.63;100.00;102776.78;5072948;28;20062;-73
2023/03/01 04:55:28;;;;;;;24.33;12.27;;;;;;;-4.62;100.00;102773.44;5072826;28;20043;-70
2023/03/01 04:57:54;;;;;;;24.27;12.15;;;;;;;-4.59;100.00;102770.25;5072223;28;20029;-71
2023/03/01 05:00:21;;;;;;;24.20;12.05;;;;;;;-4.64;100.00;102762.06;5072937;28;20029;-70
2023/03/01 05:02:48;;;;;;;23.65;11.45;;;;;;;-4.62;100.00;102765.69;5073074;28;20029;-71
2023/03/01 05:05:14;;;;;;;23.92;12.00;;;;;;;-4.62;100.00;102770.84;5072640;28;20032;-71
2023/03/01 05:07:39;;;;;;;23.17;11.73;;;;;;;-4.55;100.00;102778.41;5072877;28;20529;-71
2023/03/01 05:10:04;;;;;;;24.08;12.43;;;;;;;-4.54;100.00;102779.34;5072595;28;20112;-71
2023/03/01 05:12:30;;;;;;;23.77;12.30;;;;;;;-4.56;100.00;102776.63;5072823;28;20052;-71
2023/03/01 05:14:55;;;;;;;24.23;12.68;;;;;;;-4.55;100.00;102775.84;5072766;28;20536;-72
2023/03/01 05:17:20;;;;;;;24.70;13.18;;;;;;;-4.58;100.00;102772.97;5072576;28;20457;-72
2023/03/01 05:19:46;;;;;;;24.35;13.00;;;;;;;-4.58;100.00;102778.13;5072508;28;20337;-72
2023/03/01 05:22:11;;;;;;;24.45;13.02;;;;;;;-4.60;100.00;102768.41;5072530;28;20418;-71
2023/03/01 05:24:38;;;;;;;24.88;13.30;;;;;;;-4.62;100.00;102765.69;5072430;28;20483;-71
2023/03/01 05:27:04;;;;;;;24.02;12.65;;;;;;;-4.66;100.00;102765.25;5072411;28;20374;-72
2023/03/01 05:29:31;;;;;;;24.65;12.98;;;;;;;-4.70;100.00;102750.22;5071359;28;20029;-71
2023/03/01 05:32:02;;;;;;;24.27;13.32;;;;;;;-4.70;100.00;102752.78;5072355;28;20475;-71
2023/03/01 05:34:30;;;;;;;25.53;13.53;;;;;;;-4.69;100.00;102747.78;5072381;28;20029;-71
2023/03/01 05:36:56;;;;;;;24.92;13.55;;;;;;;-4.67;100.00;102745.38;5072334;28;20279;-71
2023/03/01 05:39:23;;;;;;;24.67;13.30;;;;;;;-4.66;100.00;102742.94;5072396;28;20584;-71
2023/03/01 05:41:53;;;;;;;24.25;13.27;;;;;;;-4.70;100.00;102740.81;5068465;28;20034;-69
2023/03/01 05:44:18;;;;;;;24.13;12.80;;;;;;;-4.69;100.00;102727.13;5068533;28;20025;-70
2023/03/01 05:46:44;;;;;;;25.27;13.15;;;;;;;-4.75;100.00;102730.06;5072180;28;20081;-71
2023/03/01 05:49:10;;;;;;;24.98;13.52;;;;;;;-4.72;100.00;102734.59;5072222;28;20028;-70
2023/03/01 05:51:36;;;;;;;24.80;12.75;;;;;;;-4.74;100.00;102733.53;5072461;28;20028;-70
2023/03/01 05:54:02;;;;;;;26.80;13.57;;;;;;;-4.77;100.00;102730.66;5072141;28;20097;-70
2023/03/01 05:56:27;;;;;;;24.75;13.18;;;;;;;-4.78;100.00;102726.25;5072380;28;20037;-70
2023/03/01 05:58:52;;;;;;;24.80;13.05;;;;;;;-4.82;100.00;102729.31;5072276;28;20087;-70
2023/03/01 06:01:18;;;;;;;25.42;13.68;;;;;;;-4.80;100.00;102736.44;5071984;28;20037;-70
2023/03/01 06:03:43;;;;;;;25.58;14.40;;;;;;;-4.74;100.00;102738.69;5072059;28;20059;-70
2023/03/01 06:06:08;;;;;;;27.88;16.40;;;;;;;-4.76;100.00;102730.81;5070945;28;20120;-70
2023/03/01 06:08:34;;;;;;;29.00;18.20;;;;;;;-4.80;100.00;102728.69;5071919;28;20064;-70
2023/03/01 06:10:59;;;;;;;29.92;18.42;;;;;;;-4.78;100.00;102731.41;5074469;28;20465;-70
2023/03/01 06:13:24;;;;;;;29.20;17.38;;;;;;;-4.73;100.00;102736.28;5075854;28;20391;-71
2023/03/01 06:15:50;;;;;;;27.67;16.10;;;;;;;-4.80;100.00;102723.53;5076069;28;20028;-70
2023/03/01 06:18:15;;;;;;;27.80;16.02;;;;;;;-4.80;100.00;102733.84;5075912;28;20016;-70
2023/03/01 06:20:41;;;;;;;26.63;15.50;;;;;;;-4.81;100.00;102728.56;5075564;28;20043;-70
2023/03/01 06:23:06;;;;;;;27.23;15.90;;;;;;;-4.83;100.00;102727.50;5075550;28;20048;-70
2023/03/01 06:25:32;;;;;;;25.85;15.40;;;;;;;-4.79;100.00;102732.16;5075734;28;20082;-70
2023/03/01 06:27:57;;;;;;;26.27;15.20;;;;;;;-4.78;100.00;102728.84;5075419;28;20390;-70
2023/03/01 06:30:25;;;;;;;26.70;14.48;;;;;;;-4.78;100.00;102736.59;5075375;28;20030;-70
2023/03/01 06:32:50;;;;;;;28.05;15.30;;;;;;;-4.79;100.00;102732.16;5075596;28;20098;-70
2023/03/01 06:35:17;;;;;;;26.55;14.45;;;;;;;-4.78;100.00;102744.31;5074237;28;20032;-70
2023/03/01 06:37:43;;;;;;;25.65;14.70;;;;;;;-4.78;100.00;102742.66;5075162;28;20483;-70
2023/03/01 06:40:11;;;;;;;25.65;14.05;;;;;;;-4.76;100.00;102740.22;5073672;28;20048;-72
2023/03/01 06:42:38;;;;;;;25.85;14.50;;;;;;;-4.71;100.00;102749.31;5072930;28;20033;-71
2023/03/01 06:45:06;;;;;;;25.83;14.07;;;;;;;-4.69;100.00;102742.63;5071494;28;20040;-70
2023/03/01 06:47:32;;;;;;;26.10;13.90;;;;;;;-4.69;100.00;102745.19;5068552;28;20036;-72
2023/03/01 06:49:58;;;;;;;26.13;14.48;;;;;;;-4.69;100.00;102747.78;5068274;28;20029;-71
2023/03/01 06:52:24;;;;;;;26.75;14.77;;;;;;;-4.65;100.00;102739.56;5071928;28;20484;-71
2023/03/01 06:54:49;;;;;;;25.40;14.00;;;;;;;-4.60;100.00;102733.19;5071256;28;20072;-72
2023/03/01 06:57:14;;;;;;;27.17;14.07;;;;;;;-4.52;100.00;102733.91;5070043;28;20103;-73
2023/03/01 06:59:40;;;;;;;25.63;14.50;;;;;;;-4.47;100.00;102739.53;5077514;28;20078;-73
2023/03/01 07:02:05;;;;;;;27.80;14.45;;;;;;;-4.40;100.00;102734.19;5075407;28;20040;-72
2023/03/01 07:04:31;;;;;;;27.90;14.70;;;;;;;-4.34;100.00;102737.31;5075380;28;20223;-71
2023/03/01 07:06:56;;;;;;;26.15;13.80;;;;;;;-4.27;100.00;102737.16;5076694;28;20090;-73
2023/03/01 07:09:23;;;;;;;27.17;14.50;;;;;;;-4.27;100.00;102736.25;5081090;28;20504;-71
2023/03/01 07:11:49;;;;;;;25.92;14.07;;;;;;;-4.22;100.00;102730.75;5071070;28;20375;-72
2023/03/01 07:14:14;;;;;;;26.17;15.73;;;;;;;-4.11;100.00;102731.75;5066114;28;20028;-71
2023/03/01 07:16:40;;;;;;;27.33;15.88;;;;;;;-3.99;100.00;102728.50;5071801;28;20377;-71
2023/03/01 07:19:05;;;;;;;26.23;14.65;;;;;;;-3.87;100.00;102738.31;5070522;28;20079;-72
2023/03/01 07:21:31;;;;;;;26.40;14.40;;;;;;;-3.72;100.00;102732.75;5066038;28;20067;-72
2023/03/01 07:23:56;;;;;;;25.50;14.13;;;;;;;-3.56;100.00;102746.31;5068748;28;20021;-72
2023/03/01 07:26:21;;;;;;;27.38;14.80;;;;;;;-3.42;100.00;102752.75;5068380;28;20074;-73
2023/03/01 07:28:47;;;;;;;26.83;14.90;;;;;;;-3.23;100.00;102744.06;5064047;28;20060;-75
2023/03/01 07:31:12;;;;;;;27.80;14.60;;;;;;;-3.11;100.00;102752.06;5073232;28;20028;-74
2023/03/01 07:33:38;;;;;;;25.52;14.68;;;;;;;-2.98;100.00;102747.19;5065520;28;20024;-73
2023/03/01 07:36:04;;;;;;;27.33;14.57;;;;;;;-2.81;100.00;102748.69;5070668;28;20373;-73
2023/03/01 07:38:30;;;;;;;26.67;14.60;;;;;;;-2.65;100.00;102750.94;5065920;28;20146;-72
2023/03/01 07:41:00;;;;;;;28.38;15.00;;;;;;;-2.49;100.00;102748.97;5067871;28;20096;-72
2023/03/01 07:43:27;;;;;;;26.30;14.77;;;;;;;-2.35;100.00;102750.16;5069241;28;20032;-70
2023/03/01 07:45:52;;;;;;;25.55;14.05;;;;;;;-2.26;100.00;102750.03;5069197;28;20025;-71
2023/03/01 07:48:18;;;;;;;26.88;14.80;;;;;;;-2.14;100.00;102743.34;5070346;28;20027;-70
2023/03/01 07:50:43;;;;;;;27.55;14.88;;;;;;;-1.98;100.00;102747.22;5066220;28;20029;-71
2023/03/01 07:53:09;;;;;;;25.15;13.70;;;;;;;-1.83;100.00;102742.47;5064581;28;20120;-71
2023/03/01 07:55:35;;;;;;;24.65;13.57;;;;;;;-1.65;100.00;102740.50;5067507;28;20103;-71
2023/03/01 07:58:01;;;;;;;25.10;13.18;;;;;;;-1.49;100.00;102740.09;5069505;28;20119;-73
2023/03/01 08:00:26;;;;;;;25.55;13.20;;;;;;;-1.29;100.00;102742.66;5062354;28;20090;-71
2023/03/01 08:02:51;;;;;;;25.80;13.02;;;;;;;-1.15;100.00;102745.47;5066015;28;20426;-73
2023/03/01 08:05:17;;;;;;;23.92;12.68;;;;;;;-0.96;100.00;102740.09;5072780;28;20060;-69
2023/03/01 08:07:42;;;;;;;24.38;12.23;;;;;;;-0.83;100.00;102742.94;5072618;28;20062;-71
2023/03/01 08:10:08;;;;;;;23.60;12.57;;;;;;;-0.65;100.00;102740.91;5065855;28;20111;-69
2023/03/01 08:12:34;;;;;;;24.00;12.70;;;;;;;-0.57;100.00;102742.44;5065161;28;20082;-69
2023/03/01 08:14:59;;;;;;;23.63;12.52;;;;;;;-0.40;100.00;102743.75;5068564;28;20025;-69
2023/03/01 08:17:25;;;;;;;24.02;12.07;;;;;;;-0.25;100.00;102746.69;5069886;28;20038;-69
2023/03/01 08:19:50;;;;;;;23.38;12.52;;;;;;;-0.12;100.00;102751.13;5068844;28;20106;-70
2023/03/01 08:22:15;;;;;;;23.15;12.45;;;;;;;0.03;100.00;102742.72;5073573;28;20128;-70
2023/03/01 08:24:41;;;;;;;24.85;12.32;;;;;;;0.22;100.00;102751.16;5073693;28;20036;-69
2023/03/01 08:27:06;;;;;;;22.88;11.88;;;;;;;0.34;100.00;102749.47;5079175;28;20066;-71
2023/03/01 08:29:33;;;;;;;23.50;12.25;;;;;;;0.47;100.00;102747.84;5072096;28;20386;-70
2023/03/01 08:31:59;;;;;;;23.23;12.07;;;;;;;0.65;100.00;102733.56;5069030;28;20441;-70
2023/03/01 08:34:24;;;;;;;22.60;11.40;;;;;;;0.73;100.00;102743.66;5072811;28;20108;-70
2023/03/01 08:36:51;;;;;;;23.42;11.95;;;;;;;0.73;100.00;102744.59;5072996;28;20033;-69
2023/03/01 08:39:18;;;;;;;23.00;11.80;;;;;;;0.71;100.00;102742.66;5073511;28;20020;-69
2023/03/01 08:41:44;;;;;;;23.40;11.73;;;;;;;0.74;100.00;102737.66;5073303;28;20467;-69
2023/03/01 08:44:12;;;;;;;24.00;12.20;;;;;;;0.89;100.00;102735.28;5086257;28;20078;-69
2023/03/01 08:46:40;;;;;;;23.33;11.80;;;;;;;1.04;100.00;102726.91;5085529;28;20031;-70
2023/03/01 08:49:08;;;;;;;22.42;11.60;;;;;;;1.31;100.00;102724.50;5089917;28;20039;-69
2023/03/01 08:51:36;;;;;;;23.13;11.73;;;;;;;1.55;100.00;102712.31;5082953;28;20028;-69
2023/03/01 08:54:07;;;;;;;22.25;11.23;;;;;;;1.87;100.00;102715.38;5081518;28;20039;-71
2023/03/01 08:56:33;;;;;;;21.42;10.65;;;;;;;2.01;100.00;102716.31;5082751;28;20028;-69
2023/03/01 08:58:58;;;;;;;22.00;10.75;;;;;;;2.26;100.00;102712.00;5081640;28;20058;-70
2023/03/01 09:01:24;;;;;;;22.10;10.60;;;;;;;2.42;100.00;102713.94;5076754;28;20048;-71
2023/03/01 09:03:49;;;;;;;21.55;10.63;;;;;;;2.63;100.00;102723.09;5073176;28;20100;-71
2023/03/01 09:06:15;;;;;;;22.65;10.43;;;;;;;2.90;100.00;102718.81;5072672;28;20039;-70
2023/03/01 09:08:46;;;;;;;21.77;10.52;;;;;;;3.09;100.00;102716.59;5071792;28;20111;-70
2023/03/01 09:11:15;;;;;;;21.23;10.32;;;;;;;3.44;100.00;102714.44;5069396;28;20379;-70
2023/03/01 09:13:41;;;;;;;22.23;10.05;;;;;;;3.62;100.00;102712.06;5068999;28;20024;-70
2023/03/01 09:16:07;;;;;;;21.95;10.05;;;;;;;3.83;100.00;102705.53;5072680;28;20027;-68
2023/03/01 09:18:34;;;;;;;22.00;10.43;;;;;;;3.91;100.00;102707.72;5072460;28;20049;-70
2023/03/01 09:21:08;;;;;;;21.40;10.00;;;;;;;3.93;100.00;102700.84;5072405;28;20506;-70
2023/03/01 09:23:36;;;;;;;21.20;10.18;;;;;;;3.94;100.00;102694.81;5072468;28;20021;-70
2023/03/01 09:26:02;;;;;;;21.67;10.20;;;;;;;3.82;100.00;102695.88;5072693;28;20496;-70
2023/03/01 09:28:28;;;;;;;21.75;9.90;;;;;;;3.89;100.00;102696.25;5072379;28;20549;-70
2023/03/01 09:30:53;;;;;;;21.48;10.07;;;;;;;4.15;100.00;102696.13;5072409;28;20115;-70
2023/03/01 09:33:18;;;;;;;22.15;10.00;;;;;;;4.59;100.00;102690.78;5072659;28;20029;-70
2023/03/01 09:35:46;;;;;;;21.30;10.27;;;;;;;4.84;100.00;102682.66;5071343;28;20020;-70
2023/03/01 09:38:13;;;;;;;20.48;9.77;;;;;;;4.85;100.00;102687.97;5072279;28;20410;-70
2023/03/01 09:40:43;;;;;;;21.80;10.35;;;;;;;4.73;99.09;102682.03;5068766;28;20029;-67
2023/03/01 09:43:19;;;;;;;21.10;9.98;;;;;;;4.77;89.45;102678.75;5068263;28;20025;-69
2023/03/01 09:45:47;;;;;;;21.08;10.18;;;;;;;5.00;75.15;102679.19;5072992;28;20406;-67
2023/03/01 09:48:23;;;;;;;21.35;10.05;;;;;;;5.06;70.39;102671.66;5076353;28;20078;-68
2023/03/01 09:50:50;;;;;;;20.98;9.90;;;;;;;5.36;68.67;102672.47;5073661;28;20028;-70
2023/03/01 09:53:19;;;;;;;22.10;10.10;;;;;;;5.84;65.39;102679.34;5076062;28;20107;-70
2023/03/01 09:55:51;;;;;;;20.40;9.20;;;;;;;6.19;59.09;102670.75;5076065;28;20107;-70
2023/03/01 09:58:41;;;;;;;20.85;9.32;;;;;;;6.50;55.84;102659.16;5076364;28;20058;-70
2023/03/01 10:01:48;;;;;;;21.60;9.07;;;;;;;6.68;53.06;102660.88;5074118;28;20028;-68
2023/03/01 10:04:28;;;;;;;20.90;9.45;;;;;;;7.23;52.35;102662.66;5072772;28;20035;-68
2023/03/01 10:07:15;;;;;;;20.77;9.20;;;;;;;7.79;49.84;102645.94;5075407;28;20036;-68
2023/03/01 10:09:43;;;;;;;21.42;9.13;;;;;;;7.89;47.02;102639.31;5072139;28;20078;-67
2023/03/01 10:12:16;;;;;;;21.27;8.98;;;;;;;8.13;46.87;102634.22;5075771;28;20108;-69
2023/03/01 10:14:41;;;;;;;21.08;8.68;;;;;;;8.71;44.85;102630.50;5072713;28;20032;-69
2023/03/01 10:17:25;;;;;;;20.40;8.88;;;;;;;9.09;44.66;102627.59;5075711;28;20481;-71
2023/03/01 10:19:51;;;;;;;20.40;9.05;;;;;;;9.28;42.59;102626.56;5073785;28;20126;-67
2023/03/01 10:22:22;;;;;;;20.85;8.93;;;;;;;9.66;41.82;102626.19;5075495;28;20032;-76
2023/03/01 10:24:49;;;;;;;21.38;9.98;;;;;;;10.06;40.76;102617.94;5075911;28;20028;-68
2023/03/01 10:27:25;;;;;;;20.30;8.88;;;;;;;10.56;39.65;102619.63;5075592;28;20318;-76
2023/03/01 10:30:32;;;;;;;21.05;8.75;;;;;;;10.92;40.87;102624.28;5075437;28;20074;-72
2023/03/01 10:32:58;;;;;;;20.00;8.48;;;;;;;11.25;38.41;102618.22;5074375;28;20056;-68
2023/03/01 10:35:26;;;;;;;20.65;9.00;;;;;;;11.15;38.48;102617.97;5075389;28;20515;-69
2023/03/01 10:38:07;;;;;;;21.00;8.82;;;;;;;10.87;38.25;102616.19;5075325;28;20547;-66
2023/03/01 10:40:36;;;;;;;21.13;9.23;;;;;;;11.18;38.28;102610.97;5075493;28;20099;-67
2023/03/01 10:43:05;;;;;;;20.83;9.65;;;;;;;11.71;37.33;102611.63;5075101;28;20044;-70
2023/03/01 10:45:38;;;;;;;20.20;8.95;;;;;;;12.55;36.34;102612.03;5075195;28;20066;-71
2023/03/01 10:48:15;;;;;;;;;;;;;;;13.53;38.03;102608.03;5075582;28;20374;-66
2023/03/01 10:50:46;;;;;;;21.33;9.27;;;;;;;13.95;34.17;102601.75;5071813;28;19912;-69
2023/03/01 10:53:32;;;;;;;20.55;8.85;;;;;;;14.26;34.72;102606.72;5075517;28;20429;-74
2023/03/01 10:55:57;;;;;;;20.52;8.68;;;;;;;14.28;33.03;102597.91;5074548;28;20098;-67
2023/03/01 10:58:22;;;;;;;19.65;8.50;;;;;;;14.60;31.43;102600.16;5074906;28;20425;-72
2023/03/01 11:01:25;;;;;;;20.48;9.13;;;;;;;14.60;32.01;102602.81;5075141;28;20032;-66
2023/03/01 11:04:05;;;;;;;20.42;8.98;;;;;;;14.97;32.76;102603.41;5063761;28;20036;-71
2023/03/01 11:06:33;;;;;;;19.70;8.65;;;;;;;15.37;31.02;102597.72;5074788;28;20115;-69
2023/03/01 11:09:17;;;;;;;19.77;8.52;;;;;;;15.73;31.22;102596.34;5074960;28;20033;-70
2023/03/01 11:11:42;;;;;;;20.23;8.77;;;;;;;16.55;29.52;102599.78;5071704;28;20496;-70